Time;durP1;ratioP1;P1;durP2;ratioP2;P2;SDS_P1;SDS_P2;PMS_P1;PMS_P2;Temp;Humidity;BMP_temperature;BMP_pressure;BME280_temperature;BME280_humidity;BME280_pressure;Samples;Min_cycle;Max_cycle;Signal;HPM_P1;HPM_P2
2022/08/23 00:02:02;;;;;;;25.10;5.33;;;;;;;19.38;72.94;99921.27;1713437;82;21091;-68
2022/08/23 00:04:35;;;;;;;21.37;4.67;;;;;;;19.40;72.99;99926.01;1712927;82;21769;-69
2022/08/23 00:07:03;;;;;;;18.02;4.75;;;;;;;19.38;72.72;99922.60;1712809;82;21556;-69
2022/08/23 00:09:30;;;;;;;24.65;4.55;;;;;;;19.39;72.26;99924.78;1712987;82;21067;-69
2022/08/23 00:12:16;;;;;;;18.27;4.50;;;;;;;19.46;71.70;99927.34;1713162;83;21614;-69
2022/08/23 00:14:47;;;;;;;18.95;4.87;;;;;;;19.49;71.24;99927.97;1713108;83;21099;-69
2022/08/23 00:17:14;;;;;;;18.98;4.67;;;;;;;19.44;71.46;99927.48;1713302;83;21341;-69
2022/08/23 00:19:41;;;;;;;24.95;5.05;;;;;;;19.42;71.30;99926.75;1713063;83;21075;-69
2022/08/23 00:22:08;;;;;;;22.48;4.62;;;;;;;19.42;71.34;99925.90;1713302;83;21128;-69
2022/08/23 00:24:35;;;;;;;17.98;4.58;;;;;;;19.42;70.97;99926.75;1713127;83;21095;-69
2022/08/23 00:27:12;;;;;;;24.32;4.72;;;;;;;19.45;70.18;99933.66;1712910;82;21142;-69
2022/08/23 00:29:48;;;;;;;23.55;5.00;;;;;;;19.45;69.97;99929.66;1712660;82;21880;-69
2022/08/23 00:32:21;;;;;;;14.10;4.53;;;;;;;19.48;69.80;99936.09;1713258;82;21103;-68
2022/08/23 00:34:48;;;;;;;13.80;4.22;;;;;;;19.47;70.10;99933.91;1712906;83;21050;-68
2022/08/23 00:37:15;;;;;;;19.07;4.95;;;;;;;19.47;69.25;99937.91;1713133;83;21043;-68
2022/08/23 00:39:43;;;;;;;21.02;4.53;;;;;;;19.46;69.35;99941.57;1712899;83;21044;-68
2022/08/23 00:47:46;;;;;;;25.32;4.85;;;;;;;19.46;69.25;99952.25;1713309;83;21111;-68
2022/08/23 00:50:30;;;;;;;21.20;5.60;;;;;;;19.44;69.05;99948.84;1712951;83;21095;-69
2022/08/23 00:53:15;;;;;;;21.65;5.10;;;;;;;19.41;69.77;99955.73;1713073;83;21110;-69
2022/08/23 00:55:44;;;;;;;25.02;5.85;;;;;;;19.36;69.78;99956.58;1712827;82;21120;-68
2022/08/23 00:58:12;;;;;;;14.20;5.15;;;;;;;19.34;70.02;99963.85;1713058;83;21097;-69
2022/08/23 01:00:39;;;;;;;19.12;5.15;;;;;;;19.28;70.06;99960.33;1712811;83;21550;-68
2022/08/23 01:03:07;;;;;;;23.92;5.70;;;;;;;19.25;69.83;99961.88;1713360;83;21105;-69
2022/08/23 01:05:51;;;;;;;16.17;5.62;;;;;;;19.33;69.36;99962.16;1702559;82;21066;-69
2022/08/23 01:08:18;;;;;;;16.20;5.00;;;;;;;19.41;69.63;99962.91;1712300;82;21532;-68
2022/08/23 01:10:49;;;;;;;17.92;5.42;;;;;;;19.34;70.15;99964.34;1712905;83;21519;-68
2022/08/23 01:13:21;;;;;;;23.47;5.28;;;;;;;19.24;70.19;99960.19;1713025;83;21109;-69
2022/08/23 01:15:53;;;;;;;24.43;5.12;;;;;;;19.23;69.73;99963.81;1712941;82;21050;-68
2022/08/23 01:18:23;;;;;;;25.80;6.00;;;;;;;19.19;70.15;99963.70;1713467;82;21034;-69
2022/08/23 01:21:07;;;;;;;20.12;5.20;;;;;;;19.16;69.69;99959.42;1702717;83;21228;-68
2022/08/23 01:23:45;;;;;;;21.40;5.45;;;;;;;19.16;69.96;99954.56;1712904;83;21581;-69
2022/08/23 01:26:15;;;;;;;13.98;4.78;;;;;;;19.16;69.69;99958.57;1712805;83;21546;-69
2022/08/23 01:28:44;;;;;;;19.20;5.60;;;;;;;19.17;69.32;99960.30;1703155;83;21073;-69
2022/08/23 01:31:11;;;;;;;26.80;5.65;;;;;;;19.17;69.51;99960.30;1712858;83;21102;-68
2022/08/23 01:33:38;;;;;;;22.13;6.10;;;;;;;19.13;69.81;99957.48;1713054;83;21110;-68
2022/08/23 01:36:08;;;;;;;16.27;5.22;;;;;;;19.10;69.73;99963.06;1702510;83;21031;-69
2022/08/23 01:38:35;;;;;;;26.93;5.17;;;;;;;19.05;69.79;99958.91;1702978;83;21042;-69
2022/08/23 01:41:02;;;;;;;14.07;4.60;;;;;;;19.05;69.85;99958.91;1712854;82;21591;-68
2022/08/23 01:43:29;;;;;;;23.18;4.97;;;;;;;19.07;69.85;99959.66;1712956;82;21133;-68
2022/08/23 01:45:56;;;;;;;29.02;4.90;;;;;;;19.08;70.06;99957.34;1713078;83;21241;-69
2022/08/23 01:48:23;;;;;;;13.70;4.80;;;;;;;19.08;70.07;99959.16;1713030;82;21073;-70
2022/08/23 01:50:50;;;;;;;25.37;4.47;;;;;;;19.13;69.36;99965.00;1712850;83;21070;-68
2022/08/23 01:53:18;;;;;;;18.62;4.80;;;;;;;19.14;69.20;99966.72;1707114;83;21024;-69
2022/08/23 01:55:47;;;;;;;28.60;5.05;;;;;;;19.09;69.12;99967.52;1682758;84;21111;-68
2022/08/23 01:58:16;;;;;;;29.02;5.20;;;;;;;19.12;69.42;99975.78;1682905;85;21253;-70
2022/08/23 02:00:43;;;;;;;21.05;4.90;;;;;;;19.13;69.33;99976.16;1683214;83;21014;-70
2022/08/23 02:03:12;;;;;;;12.73;4.50;;;;;;;19.10;68.99;99973.73;1684336;85;21045;-69
2022/08/23 02:05:40;;;;;;;16.27;4.40;;;;;;;19.12;69.01;99974.44;1650771;85;21052;-70
2022/08/23 02:10:54;;;;;;;25.80;4.45;;;;;;;19.10;68.76;99973.73;1683902;84;21065;-69
2022/08/23 02:13:21;;;;;;;15.40;4.50;;;;;;;19.13;68.54;99973.50;1683896;85;21589;-70
2022/08/23 02:15:50;;;;;;;16.65;4.85;;;;;;;19.11;68.70;99973.60;1684144;85;21586;-69
2022/08/23 02:18:20;;;;;;;28.17;5.62;;;;;;;19.12;68.72;99977.11;1650728;86;21300;-69
2022/08/23 02:20:49;;;;;;;22.87;4.58;;;;;;;19.09;68.58;99975.53;1684070;85;22112;-69
2022/08/23 02:23:16;;;;;;;23.27;5.60;;;;;;;19.10;69.02;99981.75;1684310;85;21229;-69
2022/08/23 02:25:44;;;;;;;16.60;4.60;;;;;;;19.08;68.71;99984.03;1650346;86;21164;-69
2022/08/23 02:28:11;;;;;;;28.47;5.62;;;;;;;19.11;68.69;99983.44;1684059;84;21169;-69
2022/08/23 02:30:38;;;;;;;28.98;5.20;;;;;;;19.10;68.76;99987.92;1650729;86;21069;-70
2022/08/23 02:33:06;;;;;;;19.32;4.72;;;;;;;19.11;68.59;99994.11;1650837;86;21132;-68
2022/08/23 02:35:33;;;;;;;19.37;4.90;;;;;;;19.08;68.65;99989.36;1650959;86;21195;-69
2022/08/23 02:38:07;;;;;;;18.45;5.00;;;;;;;19.12;68.59;99991.34;1650691;86;21182;-68
2022/08/23 02:40:34;;;;;;;16.32;4.80;;;;;;;19.10;68.05;99997.76;1684219;85;21112;-69
2022/08/23 02:43:02;;;;;;;23.55;5.20;;;;;;;19.07;68.06;99987.67;1650640;86;21106;-68
2022/08/23 02:45:29;;;;;;;28.05;5.15;;;;;;;19.07;67.88;99986.80;1684270;85;21053;-69
2022/08/23 02:47:56;;;;;;;25.37;5.20;;;;;;;19.06;67.68;99988.63;1684234;84;21807;-69
2022/08/23 02:50:24;;;;;;;32.00;5.33;;;;;;;19.06;67.36;99991.29;1684406;84;21050;-68
2022/08/23 02:52:54;;;;;;;21.07;5.05;;;;;;;19.06;67.02;99993.96;1651306;85;21044;-69
2022/08/23 02:55:21;;;;;;;19.00;4.40;;;;;;;19.08;67.22;99996.03;1678539;85;21553;-68
2022/08/23 02:57:47;;;;;;;17.95;4.90;;;;;;;19.08;67.19;99996.03;1713107;83;21103;-68
2022/08/23 03:00:15;;;;;;;19.35;5.55;;;;;;;19.08;67.12;99997.38;1710639;83;21126;-68
2022/08/23 03:02:42;;;;;;;21.33;5.10;;;;;;;19.05;67.21;99998.95;1650670;86;21064;-68
2022/08/23 03:05:08;;;;;;;19.37;4.83;;;;;;;19.05;67.42;100005.62;1630559;86;21112;-68
2022/08/23 03:07:36;;;;;;;24.02;5.30;;;;;;;19.02;67.77;100007.16;1684337;85;21096;-69
2022/08/23 03:10:04;;;;;;;22.25;5.22;;;;;;;19.02;67.43;100004.48;1650746;86;21616;-68
2022/08/23 03:12:31;;;;;;;21.05;4.90;;;;;;;19.03;67.24;100006.21;1684538;85;21103;-68
2022/08/23 03:14:59;;;;;;;18.35;4.75;;;;;;;19.03;67.22;100011.55;1650919;86;21085;-69
2022/08/23 03:17:29;;;;;;;19.73;4.70;;;;;;;19.02;67.11;100015.16;1631045;86;21585;-69
2022/08/23 03:19:55;;;;;;;19.52;5.20;;;;;;;19.01;67.44;100015.30;1684279;85;21183;-69
2022/08/23 03:22:24;;;;;;;24.92;5.25;;;;;;;18.99;67.80;100015.41;1650695;86;21096;-69
2022/08/23 03:24:51;;;;;;;22.25;5.10;;;;;;;18.99;67.44;100015.41;1684161;85;21225;-70
2022/08/23 03:27:18;;;;;;;26.65;4.83;;;;;;;18.99;67.64;100013.22;1674278;85;21210;-68
2022/08/23 03:29:45;;;;;;;24.07;5.10;;;;;;;18.98;66.66;100011.05;1650839;86;21081;-68
2022/08/23 03:32:12;;;;;;;24.15;5.58;;;;;;;19.01;66.64;100020.64;1684409;85;21030;-68
2022/08/23 03:34:39;;;;;;;30.95;5.50;;;;;;;19.08;66.82;100022.73;1650915;86;21037;-69
2022/08/23 03:37:07;;;;;;;21.82;5.95;;;;;;;19.11;66.38;100019.47;1684593;85;22159;-69
2022/08/23 03:39:35;;;;;;;20.65;4.90;;;;;;;19.24;66.04;100025.59;1650898;86;21104;-69
2022/08/23 03:42:02;;;;;;;18.80;4.92;;;;;;;19.16;65.91;100030.64;1650861;86;21546;-70
2022/08/23 03:44:30;;;;;;;21.93;4.97;;;;;;;19.20;65.75;100032.12;1651064;86;21331;-69
2022/08/23 03:46:57;;;;;;;25.77;5.62;;;;;;;19.21;66.01;100029.81;1692491;84;21616;-69
2022/08/23 03:49:25;;;;;;;17.45;4.65;;;;;;;19.28;65.80;100037.76;1663152;86;21190;-69
2022/08/23 03:51:52;;;;;;;24.27;5.72;;;;;;;19.32;65.67;100039.20;1663201;86;21108;-69
2022/08/23 03:54:19;;;;;;;21.40;4.80;;;;;;;19.37;65.21;100038.41;1680516;84;21100;-69
2022/08/23 03:56:55;;;;;;;27.67;5.00;;;;;;;19.40;65.45;100043.50;1673375;85;21056;-69
2022/08/23 03:59:22;;;;;;;23.32;5.40;;;;;;;19.44;64.87;100044.98;1673828;85;21049;-70
2022/08/23 04:01:51;;;;;;;28.30;4.95;;;;;;;19.52;64.83;100050.22;1665228;84;21581;-69
2022/08/23 04:04:17;;;;;;;26.80;5.20;;;;;;;19.59;64.38;100044.29;1691110;83;21080;-68
2022/08/23 04:06:55;;;;;;;31.60;6.35;;;;;;;19.69;65.06;100051.14;1687343;84;21174;-68
2022/08/23 04:09:22;;;;;;;25.82;4.92;;;;;;;19.79;64.06;100060.18;1691121;84;21540;-69
2022/08/23 04:11:50;;;;;;;26.05;5.40;;;;;;;19.93;63.64;100063.13;1690920;84;21529;-70
2022/08/23 04:14:18;;;;;;;28.62;5.10;;;;;;;20.04;62.57;100055.62;1691263;84;21226;-70
2022/08/23 04:16:47;;;;;;;33.75;5.53;;;;;;;20.17;61.61;100056.34;1691165;84;21037;-69
2022/08/23 04:19:15;;;;;;;22.80;5.12;;;;;;;20.32;61.50;100056.98;1691296;84;21059;-69
2022/08/23 04:21:48;;;;;;;25.23;5.22;;;;;;;20.46;61.26;100064.75;1688674;84;21040;-71
2022/08/23 04:24:16;;;;;;;27.50;5.53;;;;;;;20.58;60.16;100057.60;1691309;84;21129;-69
2022/08/23 04:26:43;;;;;;;19.12;5.03;;;;;;;20.71;59.86;100062.34;1665228;84;21135;-68
2022/08/23 04:29:13;;;;;;;32.35;5.67;;;;;;;20.86;59.42;100058.05;1691509;84;21061;-69
2022/08/23 04:31:38;;;;;;;25.08;4.65;;;;;;;20.99;58.90;100062.78;1690967;84;21103;-69
2022/08/23 04:34:07;;;;;;;19.15;5.60;;;;;;;21.11;57.88;100063.10;1691334;84;21092;-70
2022/08/23 04:36:38;;;;;;;21.85;5.08;;;;;;;21.24;58.22;100061.62;1691196;84;21092;-69
2022/08/23 04:39:05;;;;;;;28.70;5.60;;;;;;;21.42;57.18;100064.63;1691403;84;26304;-69
2022/08/23 04:44:19;;;;;;;35.20;6.35;;;;;;;21.78;55.44;100082.09;1691402;84;21074;-68
2022/08/23 04:46:47;;;;;;;32.53;5.62;;;;;;;21.94;54.71;100080.31;1688543;84;21072;-72
2022/08/23 04:49:14;;;;;;;30.85;5.67;;;;;;;22.10;53.88;100079.00;1685809;85;21005;-70
2022/08/23 04:51:41;;;;;;;32.28;5.50;;;;;;;22.23;53.65;100085.05;1720679;83;22058;-69
2022/08/23 04:54:10;;;;;;;32.17;5.30;;;;;;;22.35;53.94;100077.27;1719359;83;21048;-69
2022/08/23 04:56:42;;;;;;;40.83;5.87;;;;;;;22.49;53.47;100083.27;1717908;83;21162;-71
2022/08/23 04:59:09;;;;;;;32.00;5.42;;;;;;;22.60;52.42;100082.67;1717909;83;21104;-68
2022/08/23 05:01:36;;;;;;;34.20;6.08;;;;;;;22.70;52.77;100084.04;1717809;83;21513;-69
2022/08/23 05:04:03;;;;;;;45.75;7.33;;;;;;;22.81;52.67;100083.94;1718134;82;22091;-69
2022/08/23 05:06:30;;;;;;;49.77;8.13;;;;;;;22.94;51.13;100078.34;1717814;83;21123;-70
2022/08/23 05:08:57;;;;;;;35.63;7.05;;;;;;;23.00;51.69;100078.30;1718014;83;21048;-69
2022/08/23 05:11:24;;;;;;;36.55;6.53;;;;;;;23.09;51.41;100081.50;1718422;83;21031;-71
2022/08/23 05:13:51;;;;;;;47.20;7.90;;;;;;;23.14;50.85;100083.77;1718151;83;21056;-70
2022/08/23 05:16:19;;;;;;;45.78;7.65;;;;;;;23.21;50.96;100082.22;1718227;83;21749;-68
2022/08/23 05:18:53;;;;;;;47.48;7.67;;;;;;;23.34;50.37;100087.34;1717211;83;21473;-70
2022/08/23 05:21:22;;;;;;;39.00;6.55;;;;;;;23.41;49.71;100076.38;1718203;83;21088;-69
2022/08/23 05:23:48;;;;;;;41.98;6.80;;;;;;;23.42;50.05;100091.50;1717892;83;21137;-70
2022/08/23 05:26:16;;;;;;;49.30;6.75;;;;;;;23.40;49.73;100096.20;1718155;83;21063;-69
2022/08/23 05:28:46;;;;;;;52.38;7.17;;;;;;;23.48;49.57;100097.67;1717975;83;21615;-69
2022/08/23 05:31:24;;;;;;;39.65;6.92;;;;;;;23.61;49.59;100102.28;1718019;83;21053;-70
2022/08/23 05:33:52;;;;;;;31.68;6.62;;;;;;;23.75;49.14;100102.88;1718500;83;21032;-69
2022/08/23 05:36:21;;;;;;;40.90;6.22;;;;;;;23.84;49.15;100107.40;1716500;83;21591;-69
2022/08/23 05:38:52;;;;;;;58.75;7.33;;;;;;;23.95;49.49;100107.25;1718099;83;21599;-70
2022/08/23 05:41:19;;;;;;;38.53;6.53;;;;;;;23.98;49.34;100108.30;1718393;83;21379;-71
2022/08/23 05:43:46;;;;;;;42.90;6.80;;;;;;;24.07;49.13;100107.44;1689835;83;21060;-70
2022/08/23 05:46:17;;;;;;;54.58;6.78;;;;;;;24.23;48.65;100107.34;1718446;82;21026;-68
2022/08/23 05:48:47;;;;;;;58.00;6.70;;;;;;;24.35;48.38;100112.89;1725827;82;21054;-69
2022/08/23 05:51:21;;;;;;;50.90;7.78;;;;;;;24.54;48.42;100107.97;1726050;82;21026;-70
2022/08/23 05:53:50;;;;;;;42.62;6.90;;;;;;;24.87;46.94;100109.25;1713353;82;21142;-70
2022/08/23 05:56:25;;;;;;;50.40;7.37;;;;;;;24.80;46.83;100113.55;1695090;84;21902;-71
2022/08/23 05:58:54;;;;;;;39.80;7.12;;;;;;;24.68;47.70;100116.05;1695354;84;21070;-70
2022/08/23 06:01:28;;;;;;;44.98;6.17;;;;;;;24.69;47.61;100115.08;1695069;84;21007;-70
2022/08/23 06:03:59;;;;;;;42.50;6.33;;;;;;;24.69;46.50;100117.27;1695476;84;21082;-71
2022/08/23 06:06:25;;;;;;;53.20;8.43;;;;;;;24.74;47.06;100122.20;1695084;84;21659;-71
2022/08/23 06:08:52;;;;;;;45.98;7.53;;;;;;;24.86;47.43;100123.70;1695244;84;21086;-71
2022/08/23 06:11:22;;;;;;;45.85;6.58;;;;;;;25.07;46.50;100127.98;1695233;84;21150;-71
2022/08/23 06:13:55;;;;;;;55.05;8.53;;;;;;;25.31;45.72;100128.31;1695229;84;21123;-70
2022/08/23 06:16:27;;;;;;;51.42;7.25;;;;;;;25.57;45.04;100128.90;1695208;84;21082;-70
2022/08/23 06:18:54;;;;;;;57.83;8.68;;;;;;;25.81;43.76;100135.52;1679603;84;21197;-71
2022/08/23 06:21:24;;;;;;;60.78;7.75;;;;;;;26.00;44.37;100125.08;1682681;84;21694;-69
2022/08/23 06:23:50;;;;;;;57.58;7.70;;;;;;;26.32;43.13;100129.89;1695106;84;21058;-70
2022/08/23 06:26:20;;;;;;;47.73;7.25;;;;;;;26.51;42.06;100131.02;1694998;84;21035;-69
2022/08/23 06:28:53;;;;;;;56.98;8.70;;;;;;;26.60;41.52;100137.34;1695122;84;21066;-70
2022/08/23 06:32:07;;;;;;;54.98;7.47;;;;;;;26.74;41.73;100143.48;1695546;84;21115;-69
2022/08/23 06:33:52;;;;;;;52.88;7.58;;;;;;;26.92;40.61;100137.17;1689419;84;21552;-69
2022/08/23 06:36:26;;;;;;;64.37;8.15;;;;;;;27.02;40.56;100141.08;1686428;84;21107;-70
2022/08/23 06:38:55;;;;;;;62.00;7.60;;;;;;;27.22;41.47;100141.19;1694347;84;21115;-70
2022/08/23 06:41:36;;;;;;;;;;;;;;;27.59;39.75;100145.33;1696319;84;21027;-69
2022/08/23 06:44:08;;;;;;;52.83;7.55;;;;;;;27.77;38.80;100152.79;1693284;84;21326;-71
2022/08/23 06:46:56;;;;;;;57.53;7.62;;;;;;;27.77;39.30;100156.84;1692685;84;21509;-68
2022/08/23 06:49:23;;;;;;;70.47;8.63;;;;;;;28.02;39.26;100161.80;1682783;85;21059;-70
2022/08/23 06:51:52;;;;;;;48.17;8.73;;;;;;;28.26;38.24;100168.73;1682907;85;21504;-70
2022/08/23 06:54:39;;;;;;;53.50;8.08;;;;;;;28.26;37.66;100160.61;1704585;83;21093;-70
2022/08/23 06:57:11;;;;;;;54.00;7.20;;;;;;;28.37;37.43;100164.31;1710672;83;21194;-71
2022/08/23 07:01:52;;;;;;;63.00;8.90;;;;;;;28.49;37.24;100157.55;1796205;79;22507;-69
2022/08/23 07:04:31;;;;;;;50.30;8.98;;;;;;;28.49;37.24;100157.55;1738468;81;21037;-71
2022/08/23 07:07:09;;;;;;;56.05;9.13;;;;;;;28.62;37.47;100160.56;1721955;83;21648;-71
2022/08/23 07:09:36;;;;;;;56.42;8.70;;;;;;;28.83;36.70;100163.22;1722998;83;21013;-71
2022/08/23 07:12:05;;;;;;;66.65;10.72;;;;;;;28.85;35.59;100167.45;1722992;83;21009;-71
2022/08/23 07:14:32;;;;;;;57.73;8.78;;;;;;;28.87;35.67;100168.60;1709384;84;21404;-70
2022/08/23 07:17:01;;;;;;;67.47;8.88;;;;;;;28.91;35.20;100192.98;1709328;84;21554;-71
2022/08/23 07:19:31;;;;;;;63.20;8.88;;;;;;;28.87;35.69;100172.67;1709230;84;21135;-70
2022/08/23 07:21:59;;;;;;;78.00;11.37;;;;;;;29.04;34.62;100170.77;1709404;84;21872;-72
2022/08/23 07:24:28;;;;;;;73.72;10.10;;;;;;;29.02;35.27;100181.77;1709337;84;20962;-71
2022/08/23 07:26:55;;;;;;;76.97;11.13;;;;;;;29.18;34.28;100177.34;1720341;83;21053;-71
2022/08/23 07:29:23;;;;;;;76.70;8.73;;;;;;;29.47;33.94;100185.67;1720152;83;21073;-71
2022/08/23 07:31:53;;;;;;;90.70;11.12;;;;;;;29.66;33.44;100182.16;1720294;83;21292;-71
2022/08/23 07:34:20;;;;;;;78.87;10.23;;;;;;;30.00;32.72;100180.91;1720250;83;21057;-70
2022/08/23 07:36:48;;;;;;;66.67;9.78;;;;;;;30.01;32.53;100194.31;1693232;83;21073;-69
2022/08/23 07:39:15;;;;;;;83.92;10.53;;;;;;;29.84;32.63;100189.53;1720327;83;21085;-70
2022/08/23 07:41:42;;;;;;;66.07;8.40;;;;;;;29.63;32.77;100198.30;1720021;83;21094;-70
2022/08/23 07:44:10;;;;;;;60.88;9.03;;;;;;;29.35;33.47;100195.20;1720046;83;21243;-71
2022/08/23 07:46:39;;;;;;;66.05;8.48;;;;;;;29.27;33.97;100195.27;1720265;83;21495;-71
2022/08/23 07:49:07;;;;;;;87.80;10.70;;;;;;;29.40;33.98;100195.55;1720617;83;21041;-71
2022/08/23 07:51:36;;;;;;;81.02;9.53;;;;;;;29.67;33.20;100199.63;1719853;83;21097;-72
2022/08/23 07:54:07;;;;;;;69.55;9.15;;;;;;;29.96;32.65;100194.55;1720263;83;21532;-71
2022/08/23 07:56:35;;;;;;;57.58;9.63;;;;;;;30.00;32.45;100198.07;1719638;83;21763;-72
2022/08/23 07:59:07;;;;;;;63.20;8.30;;;;;;;30.06;32.60;100203.27;1716859;83;21028;-71
2022/08/23 08:01:35;;;;;;;71.62;9.88;;;;;;;30.16;32.50;100194.38;1678996;84;21605;-71
2022/08/23 08:04:03;;;;;;;66.15;9.30;;;;;;;30.13;32.46;100202.87;1678513;85;21081;-71
2022/08/23 08:06:45;;;;;;;68.93;8.87;;;;;;;30.25;33.12;100197.36;1678789;85;21621;-70
2022/08/23 08:09:12;;;;;;;65.92;9.30;;;;;;;30.26;33.38;100198.20;1678458;85;21112;-69
2022/08/23 08:11:44;;;;;;;67.90;9.60;;;;;;;29.98;32.56;100196.05;1677830;85;21066;-71
2022/08/23 08:14:12;;;;;;;78.78;10.00;;;;;;;29.86;33.39;100196.98;1678762;85;21038;-70
2022/08/23 08:16:44;;;;;;;60.90;9.50;;;;;;;29.90;33.21;100199.64;1677798;85;21554;-70
2022/08/23 08:19:15;;;;;;;68.10;10.13;;;;;;;30.07;33.44;100194.95;1677954;85;21093;-71
2022/08/23 08:22:01;;;;;;;68.37;7.70;;;;;;;29.89;33.02;100205.28;1678297;85;22246;-71
2022/08/23 08:24:35;;;;;;;67.75;9.33;;;;;;;29.69;33.85;100198.95;1673908;85;21034;-71
2022/08/23 08:27:04;;;;;;;70.37;9.03;;;;;;;29.70;33.50;100205.22;1677728;85;21648;-71
2022/08/23 08:29:33;;;;;;;73.20;9.45;;;;;;;29.63;33.81;100202.86;1678146;85;21086;-71
2022/08/23 08:32:01;;;;;;;53.00;8.30;;;;;;;29.47;33.85;100207.86;1678345;85;21069;-71
2022/08/23 08:34:27;;;;;;;73.28;9.60;;;;;;;29.21;34.91;100214.95;1678459;85;21850;-71
2022/08/23 08:36:57;;;;;;;65.57;10.20;;;;;;;29.21;34.91;100214.95;1678091;85;21065;-71
2022/08/23 08:39:28;;;;;;;68.92;9.45;;;;;;;29.07;34.72;100210.58;1678174;85;21061;-70
2022/08/23 08:42:25;;;;;;;68.02;9.83;;;;;;;28.88;36.14;100223.16;1678172;85;21062;-73
2022/08/23 08:45:26;;;;;;;65.83;9.25;;;;;;;28.76;37.07;100225.88;1678731;85;21073;-71
2022/08/23 08:48:10;;;;;;;54.65;9.08;;;;;;;28.70;35.91;100221.17;1678153;85;21632;-73
2022/08/23 08:50:58;;;;;;;60.28;9.43;;;;;;;28.67;36.01;100218.30;1677188;85;21566;-70
2022/08/23 08:53:32;;;;;;;81.82;9.88;;;;;;;29.53;35.25;100217.17;1674831;85;21581;-71
2022/08/23 08:56:27;;;;;;;68.37;8.65;;;;;;;29.53;35.25;100217.17;1659749;86;21672;-70
2022/08/23 08:59:05;;;;;;;54.18;8.30;;;;;;;29.94;34.36;100212.88;1662790;86;21078;-70
2022/08/23 09:01:35;;;;;;;35.55;7.60;;;;;;;30.47;32.68;100208.39;1663370;85;21152;-71
2022/08/23 09:04:03;;;;;;;48.50;7.00;;;;;;;30.69;32.91;100199.34;1663310;86;21076;-70
2022/08/23 09:06:57;;;;;;;55.67;7.28;;;;;;;30.92;31.51;100204.72;1663053;86;21057;-72
2022/08/23 09:10:05;;;;;;;31.25;5.12;;;;;;;30.89;30.77;100204.23;1665778;84;21094;-71
2022/08/23 09:12:54;;;;;;;38.75;5.08;;;;;;;30.87;28.36;100207.13;1678213;85;21053;-70
2022/08/23 09:15:52;;;;;;;37.45;5.10;;;;;;;31.06;28.37;100200.80;1678353;85;21095;-71
2022/08/23 09:18:20;;;;;;;32.15;5.42;;;;;;;31.16;27.21;100210.89;1678121;85;21046;-70
2022/08/23 09:20:47;;;;;;;26.80;4.35;;;;;;;31.18;27.10;100207.99;1678400;85;21678;-71
2022/08/23 09:23:22;;;;;;;32.20;4.47;;;;;;;31.18;26.54;100212.07;1678153;85;21049;-71
2022/08/23 09:25:59;;;;;;;23.57;3.55;;;;;;;31.04;26.64;100215.97;1678498;85;21480;-71
2022/08/23 09:28:35;;;;;;;25.27;3.52;;;;;;;30.64;25.87;100200.91;1678073;84;21097;-70
2022/08/23 09:31:02;;;;;;;21.35;3.95;;;;;;;30.60;25.90;100214.04;1678407;85;21044;-71
2022/08/23 09:33:41;;;;;;;21.45;3.70;;;;;;;30.82;26.24;100203.27;1678044;85;21109;-70
2022/08/23 09:36:21;;;;;;;21.97;4.22;;;;;;;31.08;26.52;100200.09;1678204;85;21054;-72
2022/08/23 09:39:06;;;;;;;19.40;3.52;;;;;;;31.44;26.12;100212.42;1678443;85;21094;-70
2022/08/23 09:41:38;;;;;;;35.55;4.35;;;;;;;31.40;26.63;100204.27;1678152;85;21632;-71
2022/08/23 09:44:15;;;;;;;19.80;3.77;;;;;;;31.10;26.19;100205.67;1678143;85;21120;-72
2022/08/23 09:46:42;;;;;;;26.80;3.83;;;;;;;30.83;26.48;100216.69;1678477;85;21057;-71
2022/08/23 09:49:26;;;;;;;18.60;3.55;;;;;;;30.44;28.30;100211.48;1678147;85;21086;-72
2022/08/23 09:51:59;;;;;;;23.87;3.98;;;;;;;30.27;28.08;100211.60;1677886;85;21098;-70
2022/08/23 09:54:32;;;;;;;26.70;3.75;;;;;;;30.12;26.67;100203.91;1664852;85;21864;-71
2022/08/23 09:57:05;;;;;;;26.97;4.08;;;;;;;29.93;27.45;100205.74;1678037;85;21112;-71
2022/08/23 09:59:46;;;;;;;25.65;3.85;;;;;;;29.95;27.21;100202.34;1678161;85;21042;-71
2022/08/23 10:02:25;;;;;;;25.62;4.28;;;;;;;30.20;26.70;100199.75;1677641;85;21491;-71
2022/08/23 10:05:02;;;;;;;32.53;4.28;;;;;;;30.72;26.17;100204.39;1678161;85;22114;-70
2022/08/23 10:07:40;;;;;;;25.75;4.50;;;;;;;31.12;25.23;100203.61;1677911;85;21163;-71
2022/08/23 10:10:33;;;;;;;30.77;4.70;;;;;;;31.33;24.19;100210.16;1678134;85;21051;-70
2022/08/23 10:13:02;;;;;;;21.90;3.58;;;;;;;31.51;24.06;100213.34;1678201;85;21125;-71
2022/08/23 10:16:16;;;;;;;25.50;4.22;;;;;;;31.75;24.09;100208.08;1674119;85;21183;-72
2022/08/23 10:18:59;;;;;;;22.82;4.12;;;;;;;32.02;24.07;100198.83;1676543;85;21057;-72
2022/08/23 10:22:00;;;;;;;18.50;3.70;;;;;;;32.53;23.63;100210.94;1677827;85;21140;-71
2022/08/23 10:24:45;;;;;;;25.20;3.08;;;;;;;32.45;23.00;100213.77;1677921;85;21086;-71
2022/08/23 10:30:45;;;;;;;21.85;3.98;;;;;;;32.38;23.51;100209.63;1678350;85;21563;-70
2022/08/23 10:33:23;;;;;;;18.35;3.47;;;;;;;32.63;23.17;100214.67;1678134;85;21082;-70
2022/08/23 10:36:16;;;;;;;;;;;;;;;32.85;22.99;100206.41;1656217;85;21038;-69
2022/08/23 10:38:51;;;;;;;17.70;3.87;;;;;;;33.11;22.46;100194.86;1678230;85;20515;-71
2022/08/23 10:41:49;;;;;;;23.75;3.83;;;;;;;33.21;22.62;100204.86;1678030;85;21006;-70
2022/08/23 10:44:34;;;;;;;16.57;3.05;;;;;;;33.43;22.04;100198.77;1678312;85;21033;-70
2022/08/23 10:47:18;;;;;;;22.13;3.27;;;;;;;33.78;21.34;100204.98;1678009;85;21049;-70
2022/08/23 10:49:49;;;;;;;16.23;2.62;;;;;;;33.88;21.16;100209.20;1678305;85;21716;-71
2022/08/23 10:52:20;;;;;;;;;;;;;;;33.76;20.41;100193.95;1680457;85;21061;-70
2022/08/23 10:55:04;;;;;;;23.45;3.30;;;;;;;33.70;20.66;100203.78;1705839;83;20200;-70
2022/08/23 10:57:36;;;;;;;17.95;3.00;;;;;;;33.79;20.97;100196.25;1711844;83;21068;-72
2022/08/23 11:00:12;;;;;;;11.03;3.05;;;;;;;34.00;20.31;100202.05;1686000;83;21061;-70
2022/08/23 11:03:06;;;;;;;16.73;3.02;;;;;;;34.18;20.27;100202.84;1714323;83;21764;-70
2022/08/23 11:05:36;;;;;;;15.85;3.10;;;;;;;34.16;20.37;100200.31;1715025;83;21600;-70
2022/08/23 11:08:14;;;;;;;10.90;2.90;;;;;;;34.11;20.68;100199.27;1714305;83;21088;-70
2022/08/23 11:10:46;;;;;;;21.60;2.77;;;;;;;34.19;20.42;100212.21;1716898;83;21096;-71
2022/08/23 11:13:21;;;;;;;26.82;3.00;;;;;;;34.28;20.42;100189.62;1693043;83;21113;-71
2022/08/23 11:16:16;;;;;;;16.73;3.20;;;;;;;34.20;20.28;100203.48;1720082;83;21154;-71
2022/08/23 11:18:48;;;;;;;32.45;3.58;;;;;;;34.11;20.44;100194.64;1717570;83;21048;-71
2022/08/23 11:21:27;;;;;;;21.48;4.00;;;;;;;34.14;20.68;100190.64;1719203;83;21042;-71
2022/08/23 11:24:03;;;;;;;24.57;3.33;;;;;;;34.29;20.39;100189.92;1719521;83;21044;-71
2022/08/23 11:26:45;;;;;;;23.62;3.05;;;;;;;34.48;19.75;100198.62;1719346;83;21063;-70
2022/08/23 11:29:26;;;;;;;10.75;2.02;;;;;;;34.40;20.18;100202.13;1694302;83;21669;-71
2022/08/23 11:32:12;;;;;;;23.87;3.60;;;;;;;34.15;19.46;100186.88;1657995;86;21130;-70
2022/08/23 11:34:50;;;;;;;18.45;2.45;;;;;;;34.03;19.61;100198.39;1705851;84;21576;-71
2022/08/23 11:37:25;;;;;;;23.30;2.90;;;;;;;34.03;19.78;100191.56;1679001;84;21675;-70
2022/08/23 11:40:02;;;;;;;22.05;3.55;;;;;;;33.99;20.40;100197.13;1705746;84;21529;-70
2022/08/23 11:42:45;;;;;;;31.33;4.78;;;;;;;34.21;21.23;100191.48;1706362;84;21102;-70
2022/08/23 11:45:38;;;;;;;26.17;3.60;;;;;;;34.41;21.16;100185.48;1705430;84;20997;-72
2022/08/23 11:48:36;;;;;;;17.62;3.35;;;;;;;34.52;20.94;100190.02;1660567;86;21335;-72
2022/08/23 11:51:14;;;;;;;21.77;3.60;;;;;;;34.60;20.68;100181.56;1706104;84;21643;-70
2022/08/23 11:54:05;;;;;;;21.33;3.60;;;;;;;34.25;20.64;100204.52;1707401;81;21087;-72
2022/08/23 11:57:01;;;;;;;27.27;3.60;;;;;;;33.87;20.94;100204.77;1755650;81;21612;-71
2022/08/23 12:00:13;;;;;;;20.70;3.10;;;;;;;33.69;20.55;100205.38;1755842;81;21083;-71
2022/08/23 12:03:04;;;;;;;21.07;2.72;;;;;;;33.46;20.80;100198.34;1752228;81;21035;-70